Time;durP1;ratioP1;P1;durP2;ratioP2;P2;SDS_P1;SDS_P2;PMS_P1;PMS_P2;Temp;Humidity;BMP_temperature;BMP_pressure;BME280_temperature;BME280_humidity;BME280_pressure;Samples;Min_cycle;Max_cycle;Signal;HPM_P1;HPM_P2
2022/12/14 00:01:22;;;;;;;33.55;10.35;;;-0.30;99.90;;;;;;5035228;28;20056;-79
2022/12/14 00:03:51;;;;;;;19.63;10.27;;;-0.30;99.90;;;;;;5033808;28;20029;-76
2022/12/14 00:06:18;;;;;;;21.58;9.57;;;-0.30;99.90;;;;;;5029555;28;20026;-76
2022/12/14 00:08:47;;;;;;;23.60;10.20;;;-0.30;99.90;;;;;;5035465;28;20053;-80
2022/12/14 00:11:13;;;;;;;21.42;8.82;;;-0.20;99.90;;;;;;5034498;28;20047;-76
2022/12/14 00:13:40;;;;;;;20.42;10.18;;;-0.20;99.90;;;;;;5030982;28;20025;-75
2022/12/14 00:16:17;;;;;;;18.63;8.73;;;-0.20;99.90;;;;;;5039231;28;20026;-79
2022/12/14 00:18:45;;;;;;;16.40;8.88;;;-0.20;99.90;;;;;;5026355;28;20436;-77
2022/12/14 00:21:13;;;;;;;19.75;9.43;;;-0.20;99.90;;;;;;5027554;28;20026;-76
2022/12/14 00:23:43;;;;;;;21.27;9.45;;;-0.20;99.90;;;;;;5023441;28;20026;-76
2022/12/14 00:26:23;;;;;;;23.40;9.15;;;-0.20;99.90;;;;;;5027234;28;20022;-76
2022/12/14 00:28:55;;;;;;;21.55;9.57;;;-0.20;99.90;;;;;;5026231;28;20065;-77
2022/12/14 00:31:22;;;;;;;17.48;8.93;;;-0.20;99.90;;;;;;5036326;28;20197;-77
2022/12/14 00:33:49;;;;;;;19.70;8.52;;;-0.20;99.90;;;;;;5026500;28;20056;-78
2022/12/14 00:36:15;;;;;;;23.58;9.52;;;-0.20;99.90;;;;;;5025558;28;20025;-78
2022/12/14 00:38:42;;;;;;;23.67;9.32;;;-0.20;99.90;;;;;;5046333;28;20065;-77
2022/12/14 00:41:12;;;;;;;22.75;9.48;;;-0.20;99.90;;;;;;5035427;28;20044;-77
2022/12/14 00:43:38;;;;;;;19.52;8.52;;;-0.20;99.90;;;;;;5029272;28;20045;-78
2022/12/14 00:46:04;;;;;;;22.23;9.15;;;-0.20;99.90;;;;;;5032401;28;20022;-78
2022/12/14 00:48:33;;;;;;;22.73;9.20;;;-0.10;99.90;;;;;;5032304;28;20106;-75
2022/12/14 00:50:58;;;;;;;22.25;9.50;;;-0.20;99.90;;;;;;5031781;28;20052;-78
2022/12/14 00:53:24;;;;;;;18.15;8.65;;;-0.20;99.90;;;;;;5037080;28;20461;-77
2022/12/14 00:55:50;;;;;;;19.33;8.50;;;-0.20;99.90;;;;;;5034368;28;20406;-76
2022/12/14 00:58:19;;;;;;;24.50;8.93;;;-0.10;99.90;;;;;;5032242;28;20108;-78
2022/12/14 01:00:47;;;;;;;20.63;9.07;;;-0.20;99.90;;;;;;5038822;28;20048;-77
2022/12/14 01:03:12;;;;;;;20.35;9.27;;;-0.20;99.90;;;;;;5025683;28;20037;-78
2022/12/14 01:05:38;;;;;;;16.83;8.48;;;-0.10;99.90;;;;;;5020924;28;20446;-76
2022/12/14 01:08:07;;;;;;;18.25;8.40;;;-0.10;99.90;;;;;;5028337;28;20037;-77
2022/12/14 01:10:35;;;;;;;17.85;8.30;;;-0.10;99.90;;;;;;5019606;28;20022;-78
2022/12/14 01:13:05;;;;;;;24.25;7.95;;;-0.10;99.90;;;;;;5022260;28;20022;-77
2022/12/14 01:15:34;;;;;;;17.40;8.07;;;-0.10;99.90;;;;;;5019210;28;20080;-75
2022/12/14 01:18:00;;;;;;;17.02;7.78;;;-0.10;99.90;;;;;;5025388;28;20026;-75
2022/12/14 01:20:28;;;;;;;17.60;7.60;;;-0.10;99.90;;;;;;5023972;28;20021;-79
2022/12/14 01:22:57;;;;;;;18.05;8.15;;;-0.10;99.90;;;;;;5025698;28;20026;-76
2022/12/14 01:25:23;;;;;;;15.57;7.85;;;-0.10;99.90;;;;;;5029567;28;20022;-78
2022/12/14 01:27:49;;;;;;;15.35;7.70;;;-0.10;99.90;;;;;;5039875;28;20026;-78
2022/12/14 01:30:15;;;;;;;19.02;7.63;;;-0.10;99.90;;;;;;5035587;28;20058;-78
2022/12/14 01:32:41;;;;;;;17.67;7.60;;;-0.10;99.90;;;;;;5028723;28;20025;-77
2022/12/14 01:35:09;;;;;;;18.92;8.15;;;-0.10;99.90;;;;;;5032108;28;20528;-76
2022/12/14 01:37:35;;;;;;;18.58;8.48;;;-0.20;99.90;;;;;;5022453;28;20508;-77
2022/12/14 01:40:02;;;;;;;15.80;6.93;;;-0.20;99.90;;;;;;5024217;28;20025;-76
2022/12/14 01:42:30;;;;;;;18.95;7.68;;;-0.20;99.90;;;;;;5022823;28;20038;-78
2022/12/14 01:44:57;;;;;;;15.07;7.30;;;-0.30;99.90;;;;;;5020794;28;20030;-77
2022/12/14 01:47:48;;;;;;;18.35;7.55;;;-0.30;99.90;;;;;;5037147;28;20092;-75
2022/12/14 01:50:26;;;;;;;15.73;7.95;;;-0.20;99.90;;;;;;5023718;28;20026;-75
2022/12/14 01:53:00;;;;;;;21.20;7.93;;;-0.30;99.90;;;;;;5019916;28;20423;-77
2022/12/14 01:55:34;;;;;;;18.52;7.75;;;-0.30;99.90;;;;;;5020518;28;20404;-78
2022/12/14 01:58:29;;;;;;;15.77;7.57;;;-0.20;99.90;;;;;;5027609;28;20022;-76
2022/12/14 02:01:01;;;;;;;16.35;7.43;;;-0.20;99.90;;;;;;5018237;28;20061;-76
2022/12/14 02:03:33;;;;;;;17.83;7.05;;;-0.20;99.90;;;;;;5021717;28;20107;-76
2022/12/14 02:06:16;;;;;;;14.68;6.95;;;-0.20;99.90;;;;;;5021498;28;20045;-77
2022/12/14 02:08:46;;;;;;;20.35;7.28;;;-0.20;99.90;;;;;;5033562;28;20450;-76
2022/12/14 02:11:12;;;;;;;20.27;7.60;;;-0.30;99.90;;;;;;5022644;28;20068;-79
2022/12/14 02:13:40;;;;;;;17.90;8.75;;;-0.20;99.90;;;;;;5043360;28;20021;-79
2022/12/14 02:16:11;;;;;;;16.38;7.55;;;-0.20;99.90;;;;;;5021413;28;20033;-78
2022/12/14 02:18:40;;;;;;;14.73;6.10;;;-0.20;99.90;;;;;;5022979;28;20029;-76
2022/12/14 02:21:17;;;;;;;18.10;7.80;;;-0.30;99.90;;;;;;5023638;28;20072;-78
2022/12/14 02:24:12;;;;;;;13.02;6.30;;;-0.30;99.90;;;;;;5015756;28;20036;-77
2022/12/14 02:27:22;;;;;;;22.33;7.00;;;-0.30;99.90;;;;;;5020958;28;20461;-78
2022/12/14 02:30:16;;;;;;;15.30;6.95;;;-0.40;99.90;;;;;;5014878;28;20057;-78
2022/12/14 02:33:01;;;;;;;16.83;6.85;;;-0.40;99.90;;;;;;5022558;28;20026;-76
2022/12/14 02:35:30;;;;;;;13.30;6.70;;;-0.40;99.90;;;;;;5021596;28;20026;-78
2022/12/14 02:38:10;;;;;;;13.77;6.63;;;-0.50;99.90;;;;;;5023005;28;20025;-76
2022/12/14 02:40:53;;;;;;;16.77;6.45;;;-0.40;99.90;;;;;;5022751;28;20580;-76
2022/12/14 02:43:25;;;;;;;14.77;5.90;;;-0.40;99.90;;;;;;5020577;28;20029;-78
2022/12/14 02:46:28;;;;;;;14.80;6.20;;;-0.40;99.90;;;;;;5019496;28;20113;-77
2022/12/14 02:49:12;;;;;;;13.50;5.80;;;-0.40;99.90;;;;;;5021740;28;20083;-77
2022/12/14 02:51:44;;;;;;;16.98;6.22;;;-0.40;99.90;;;;;;5020475;28;20068;-76
2022/12/14 02:54:18;;;;;;;12.02;5.95;;;-0.40;99.90;;;;;;5021558;28;20470;-76
2022/12/14 02:56:52;;;;;;;12.18;6.22;;;-0.40;99.90;;;;;;5039954;28;20048;-75
2022/12/14 02:59:18;;;;;;;12.63;5.45;;;-0.30;99.90;;;;;;5021114;28;20569;-75
2022/12/14 03:01:45;;;;;;;14.18;5.53;;;-0.30;99.90;;;;;;5022185;28;20059;-74
2022/12/14 03:04:15;;;;;;;15.43;5.95;;;-0.30;99.90;;;;;;5024293;28;20025;-77
2022/12/14 03:07:30;;;;;;;13.68;6.82;;;-0.30;99.90;;;;;;5024830;28;20030;-78
2022/12/14 03:10:07;;;;;;;12.32;5.47;;;-0.30;99.90;;;;;;5034764;28;20070;-78
2022/12/14 03:12:35;;;;;;;12.60;5.65;;;-0.30;99.90;;;;;;5024391;28;20014;-76
2022/12/14 03:15:05;;;;;;;13.35;5.40;;;-0.30;99.90;;;;;;5017031;28;20128;-78
2022/12/14 03:17:33;;;;;;;15.75;6.40;;;-0.30;99.90;;;;;;5027986;28;20108;-77
2022/12/14 03:20:09;;;;;;;11.73;6.20;;;-0.20;99.90;;;;;;5023063;28;20021;-77
2022/12/14 03:22:39;;;;;;;11.27;6.13;;;-0.20;99.90;;;;;;5022142;28;20030;-77
2022/12/14 03:25:29;;;;;;;12.02;5.75;;;-0.30;99.90;;;;;;5018850;28;20125;-78
2022/12/14 03:28:06;;;;;;;13.00;5.57;;;-0.20;99.90;;;;;;5019157;28;20130;-77
2022/12/14 03:30:35;;;;;;;11.27;5.18;;;-0.20;99.90;;;;;;5019536;28;20132;-76
2022/12/14 03:33:05;;;;;;;13.65;6.47;;;-0.20;99.90;;;;;;5022566;28;20025;-77
2022/12/14 03:35:57;;;;;;;13.35;6.35;;;-0.20;99.90;;;;;;5022476;28;20568;-78
2022/12/14 03:38:32;;;;;;;16.15;5.88;;;-0.20;99.90;;;;;;4998364;28;20026;-78
2022/12/14 03:41:25;;;;;;;10.43;5.43;;;-0.20;99.90;;;;;;5017791;28;20129;-79
2022/12/14 03:44:08;;;;;;;14.90;5.47;;;-0.20;99.90;;;;;;5036832;28;20018;-79
2022/12/14 03:46:45;;;;;;;;;;;-0.20;99.90;;;;;;5018027;28;20500;-77
2022/12/14 03:49:15;;;;;;;7.68;4.95;;;-0.30;99.90;;;;;;5019909;28;19905;-76
2022/12/14 03:52:06;;;;;;;12.75;5.53;;;-0.30;99.90;;;;;;5021200;28;20018;-75
2022/12/14 03:55:07;;;;;;;10.75;5.85;;;-0.30;99.90;;;;;;5023142;28;20446;-79
2022/12/14 03:57:42;;;;;;;13.43;5.68;;;-0.30;99.90;;;;;;5024816;28;20600;-75
2022/12/14 04:00:15;;;;;;;14.77;5.55;;;-0.30;99.90;;;;;;5020894;28;20144;-70
2022/12/14 04:03:02;;;;;;;10.25;5.20;;;-0.30;99.90;;;;;;5021497;28;20029;-71
2022/12/14 04:06:06;;;;;;;16.35;5.60;;;-0.30;99.90;;;;;;5022925;28;20037;-78
2022/12/14 04:08:43;;;;;;;13.57;5.78;;;-0.20;99.90;;;;;;5020117;28;20042;-78
2022/12/14 04:20:16;;;;;;;10.90;5.75;;;-0.20;99.90;;;;;;5019288;28;20037;-78
2022/12/14 04:22:55;;;;;;;9.00;4.78;;;-0.20;99.90;;;;;;5022265;28;20345;-75
2022/12/14 04:31:14;;;;;;;12.27;5.68;;;-0.20;99.90;;;;;;5022963;28;20365;-78
2022/12/14 04:33:49;;;;;;;10.57;4.72;;;-0.30;99.90;;;;;;5025091;28;20116;-75
2022/12/14 04:36:24;;;;;;;11.68;5.47;;;-0.30;99.90;;;;;;5023004;28;20021;-76
2022/12/14 04:38:55;;;;;;;10.13;5.38;;;-0.30;99.90;;;;;;5024336;28;20032;-75
2022/12/14 04:41:25;;;;;;;10.07;5.10;;;-0.30;99.90;;;;;;5027548;28;20029;-77
2022/12/14 04:43:56;;;;;;;13.40;4.97;;;-0.30;99.90;;;;;;5022646;28;20580;-74
2022/12/14 04:46:26;;;;;;;13.10;5.07;;;-0.30;99.90;;;;;;5028348;28;20131;-77
2022/12/14 04:49:09;;;;;;;12.32;5.95;;;-0.30;99.90;;;;;;5022729;28;20036;-77
2022/12/14 04:52:00;;;;;;;11.00;4.50;;;-0.30;99.90;;;;;;5027483;28;20041;-76
2022/12/14 04:54:42;;;;;;;12.02;4.82;;;-0.30;99.90;;;;;;5020940;28;20053;-79
2022/12/14 04:57:32;;;;;;;11.60;5.47;;;-0.30;99.90;;;;;;5034598;28;20328;-77
2022/12/14 04:59:59;;;;;;;12.65;5.60;;;-0.30;99.90;;;;;;5019596;28;20032;-77
2022/12/14 05:02:34;;;;;;;10.98;4.75;;;-0.30;99.90;;;;;;5022087;28;20030;-77
2022/12/14 05:05:43;;;;;;;11.32;5.47;;;-0.30;99.90;;;;;;5021765;28;20483;-79
2022/12/14 05:08:20;;;;;;;12.18;5.88;;;-0.30;99.90;;;;;;5023591;28;20152;-78
2022/12/14 05:11:05;;;;;;;15.27;5.43;;;-0.30;99.90;;;;;;5025592;28;20074;-78
2022/12/14 05:13:39;;;;;;;12.63;5.30;;;-0.30;99.90;;;;;;5047303;28;20021;-77
2022/12/14 05:16:08;;;;;;;13.55;5.50;;;-0.30;99.90;;;;;;5024710;28;20045;-76
2022/12/14 05:18:35;;;;;;;10.80;5.28;;;-0.30;99.90;;;;;;5035434;28;20037;-75
2022/12/14 05:21:00;;;;;;;14.55;6.35;;;-0.40;99.90;;;;;;5025032;28;20111;-79
2022/12/14 05:23:26;;;;;;;14.95;6.20;;;-0.40;99.90;;;;;;5040191;28;20085;-76
2022/12/14 05:25:52;;;;;;;11.18;5.47;;;-0.40;99.90;;;;;;5022965;28;20030;-74
2022/12/14 05:28:18;;;;;;;12.95;5.93;;;-0.40;99.90;;;;;;5021113;28;20618;-75
2022/12/14 05:30:43;;;;;;;12.07;5.40;;;-0.40;99.90;;;;;;5039900;28;20022;-80
2022/12/14 05:33:19;;;;;;;13.18;5.45;;;-0.40;99.90;;;;;;5021662;28;20100;-78
2022/12/14 05:35:47;;;;;;;14.23;6.43;;;-0.40;99.90;;;;;;5026345;28;20144;-75
2022/12/14 05:38:13;;;;;;;16.10;5.97;;;-0.40;99.90;;;;;;5032555;28;20092;-77
2022/12/14 05:40:41;;;;;;;14.07;5.50;;;-0.40;99.90;;;;;;5048293;28;20029;-79
2022/12/14 05:43:12;;;;;;;10.73;5.10;;;-0.40;99.90;;;;;;5027125;28;20040;-77
2022/12/14 05:45:38;;;;;;;14.07;5.90;;;-0.40;99.90;;;;;;5026346;28;20175;-78
2022/12/14 05:48:04;;;;;;;11.80;5.85;;;-0.40;99.90;;;;;;5029307;28;20049;-79
2022/12/14 05:50:31;;;;;;;13.48;5.63;;;-0.40;99.90;;;;;;5025177;28;20104;-76
2022/12/14 05:53:00;;;;;;;14.93;6.30;;;-0.40;99.90;;;;;;5020107;28;20123;-74
2022/12/14 05:55:25;;;;;;;15.93;6.53;;;-0.50;99.90;;;;;;5025533;28;20021;-76
2022/12/14 05:57:51;;;;;;;16.50;6.05;;;-0.40;99.90;;;;;;5023343;28;20339;-76
2022/12/14 06:00:17;;;;;;;11.70;5.45;;;-0.40;99.90;;;;;;5023068;28;20033;-76
2022/12/14 06:02:43;;;;;;;13.15;5.80;;;-0.40;99.90;;;;;;5036261;28;20025;-78
2022/12/14 06:05:09;;;;;;;13.98;6.13;;;-0.50;99.90;;;;;;5021554;28;20025;-78
2022/12/14 06:07:37;;;;;;;19.10;5.97;;;-0.50;99.90;;;;;;5022740;28;20041;-78
2022/12/14 06:10:04;;;;;;;12.15;5.70;;;-0.50;99.90;;;;;;5023694;28;20064;-76
2022/12/14 06:12:30;;;;;;;11.35;5.78;;;-0.50;99.90;;;;;;5036804;28;20508;-77
2022/12/14 06:14:56;;;;;;;14.02;5.78;;;-0.50;99.90;;;;;;5019521;28;20030;-76
2022/12/14 06:17:21;;;;;;;20.63;6.65;;;-0.40;99.90;;;;;;5021240;28;20037;-76
2022/12/14 06:19:49;;;;;;;15.20;5.93;;;-0.50;99.90;;;;;;5021747;28;20040;-75
2022/12/14 06:22:15;;;;;;;17.10;6.38;;;-0.40;99.90;;;;;;5026390;28;20079;-78
2022/12/14 06:24:40;;;;;;;14.55;6.50;;;-0.50;99.90;;;;;;5041243;28;20057;-76
2022/12/14 06:27:06;;;;;;;19.45;6.55;;;-0.50;99.90;;;;;;5024077;28;20125;-77
2022/12/14 06:29:32;;;;;;;17.90;6.60;;;-0.50;99.90;;;;;;5024526;28;20093;-77
2022/12/14 06:31:57;;;;;;;14.70;6.40;;;-0.50;99.90;;;;;;5021526;28;20033;-75
2022/12/14 06:34:23;;;;;;;16.55;6.25;;;-0.50;99.90;;;;;;5024142;28;20100;-77
2022/12/14 06:36:49;;;;;;;15.70;6.43;;;-0.50;99.90;;;;;;5042953;28;20025;-76
2022/12/14 06:39:15;;;;;;;17.42;6.45;;;-0.50;99.90;;;;;;5030094;28;20026;-78
2022/12/14 06:41:42;;;;;;;16.05;6.82;;;-0.60;99.90;;;;;;5021962;28;20037;-78
2022/12/14 06:44:11;;;;;;;14.93;7.03;;;-0.60;99.90;;;;;;5020607;28;20104;-79
2022/12/14 06:46:37;;;;;;;14.98;6.35;;;-0.60;99.90;;;;;;5020941;28;20034;-77
2022/12/14 06:49:04;;;;;;;21.10;6.30;;;-0.60;99.90;;;;;;5024555;28;20108;-77
2022/12/14 06:51:31;;;;;;;15.25;6.55;;;-0.60;99.90;;;;;;5021656;28;20056;-78
2022/12/14 06:53:57;;;;;;;16.45;6.93;;;-0.70;99.90;;;;;;5019297;28;20079;-76
2022/12/14 06:56:25;;;;;;;17.05;6.93;;;-0.60;99.90;;;;;;5026986;28;20041;-79
2022/12/14 06:58:53;;;;;;;21.35;7.32;;;-0.70;99.90;;;;;;5023563;28;20041;-76
2022/12/14 07:01:22;;;;;;;18.55;6.40;;;-0.60;99.90;;;;;;5024100;28;20020;-79
2022/12/14 07:03:52;;;;;;;16.67;7.40;;;-0.70;99.90;;;;;;5026055;28;20037;-77
2022/12/14 07:06:18;;;;;;;18.27;7.03;;;-0.70;99.90;;;;;;5019633;28;20022;-76
2022/12/14 07:08:44;;;;;;;17.08;6.88;;;-0.70;99.90;;;;;;5026482;28;20014;-76
2022/12/14 07:11:12;;;;;;;21.48;6.45;;;-0.70;99.90;;;;;;5021755;28;20022;-75
2022/12/14 07:13:39;;;;;;;25.35;7.57;;;-0.70;99.90;;;;;;5020667;28;20026;-76
2022/12/14 07:16:06;;;;;;;19.85;7.05;;;-0.70;99.90;;;;;;5021877;28;20017;-75
2022/12/14 07:18:35;;;;;;;15.63;7.00;;;-0.70;99.90;;;;;;5017444;28;20040;-77
2022/12/14 07:21:04;;;;;;;16.83;6.75;;;-0.70;99.90;;;;;;5024662;28;20035;-77
2022/12/14 07:23:32;;;;;;;21.23;6.95;;;-0.80;99.90;;;;;;5027922;28;20033;-75
2022/12/14 07:26:03;;;;;;;17.60;7.03;;;-0.70;99.90;;;;;;5034619;28;20034;-77
2022/12/14 07:28:29;;;;;;;13.13;6.70;;;-0.70;99.90;;;;;;5027839;28;20030;-75
2022/12/14 07:30:59;;;;;;;14.57;7.20;;;-0.60;99.90;;;;;;5029387;28;20130;-75
2022/12/14 07:33:27;;;;;;;19.20;6.80;;;-0.70;99.90;;;;;;5033880;28;20044;-76
2022/12/14 07:36:05;;;;;;;25.60;7.28;;;-0.70;99.90;;;;;;5042795;28;20037;-79
2022/12/14 07:38:32;;;;;;;18.58;7.30;;;-0.70;99.90;;;;;;5024531;28;20029;-75
2022/12/14 07:41:09;;;;;;;21.58;7.32;;;-0.70;99.90;;;;;;5029808;28;20035;-78
2022/12/14 07:43:35;;;;;;;16.25;6.97;;;-0.70;99.90;;;;;;5024882;28;20064;-80
2022/12/14 07:46:03;;;;;;;19.60;7.78;;;-0.70;99.90;;;;;;5031144;28;20033;-78
2022/12/14 07:48:30;;;;;;;12.90;6.60;;;-0.70;99.90;;;;;;5026507;28;20021;-78
2022/12/14 07:51:08;;;;;;;15.70;6.80;;;-0.70;99.90;;;;;;5041033;28;20031;-73
2022/12/14 07:53:35;;;;;;;18.40;8.13;;;-0.80;99.90;;;;;;5026566;28;20481;-77
2022/12/14 07:56:16;;;;;;;19.77;7.30;;;-0.70;99.90;;;;;;5028630;28;20072;-77
2022/12/14 07:58:42;;;;;;;15.93;6.53;;;-0.70;99.90;;;;;;5021955;28;20090;-76
2022/12/14 08:01:14;;;;;;;15.68;7.60;;;-0.80;99.90;;;;;;5025822;28;20171;-78
2022/12/14 08:03:51;;;;;;;16.52;7.13;;;-0.80;99.90;;;;;;5031934;28;20029;-77
2022/12/14 08:06:21;;;;;;;14.63;7.00;;;-0.80;99.90;;;;;;5025153;28;20026;-77
2022/12/14 08:08:47;;;;;;;21.75;7.80;;;-0.80;99.90;;;;;;5027673;28;20372;-80
2022/12/14 08:11:14;;;;;;;19.52;7.07;;;-0.80;99.90;;;;;;5021518;28;20105;-79
2022/12/14 08:13:42;;;;;;;17.70;7.88;;;-0.70;99.90;;;;;;5025394;28;20068;-75
2022/12/14 08:16:17;;;;;;;17.40;7.53;;;-0.70;99.90;;;;;;5022133;28;20026;-76
2022/12/14 08:18:43;;;;;;;21.05;7.88;;;-0.70;99.90;;;;;;5019917;28;20026;-73
2022/12/14 08:21:10;;;;;;;21.90;8.02;;;-0.70;99.90;;;;;;5022491;28;20115;-76
2022/12/14 08:23:40;;;;;;;22.10;8.35;;;-0.70;99.90;;;;;;5020956;28;20389;-77
2022/12/14 08:26:06;;;;;;;20.00;7.80;;;-0.70;99.90;;;;;;5025982;28;20030;-77
2022/12/14 08:28:33;;;;;;;16.58;6.97;;;-0.70;99.90;;;;;;5023974;28;20025;-77
2022/12/14 08:31:07;;;;;;;20.48;7.30;;;-0.60;99.90;;;;;;5026603;28;20014;-78
2022/12/14 08:33:34;;;;;;;20.63;8.07;;;-0.60;99.90;;;;;;5021952;28;20505;-78
2022/12/14 08:36:08;;;;;;;21.48;8.35;;;-0.60;99.90;;;;;;5041514;28;20116;-75
2022/12/14 08:38:35;;;;;;;22.30;8.35;;;-0.70;99.90;;;;;;5025145;28;20114;-74
2022/12/14 08:41:07;;;;;;;21.48;7.90;;;-0.60;99.90;;;;;;5027821;28;20528;-78
2022/12/14 08:43:33;;;;;;;20.60;7.60;;;-0.60;99.90;;;;;;5028393;28;20029;-77
2022/12/14 08:45:59;;;;;;;15.35;7.40;;;-0.60;99.90;;;;;;5030789;28;20037;-78
2022/12/14 08:48:25;;;;;;;16.77;7.22;;;-0.50;99.90;;;;;;5024339;28;20026;-77
2022/12/14 08:50:54;;;;;;;19.10;7.60;;;-0.50;99.90;;;;;;5026181;28;20025;-78
2022/12/14 08:53:20;;;;;;;20.10;7.88;;;-0.50;99.90;;;;;;5021973;28;20477;-77
2022/12/14 08:55:45;;;;;;;20.50;8.25;;;-0.60;99.90;;;;;;5023841;28;20109;-75
2022/12/14 08:58:12;;;;;;;16.42;7.30;;;-0.60;99.90;;;;;;5026686;28;20104;-77
2022/12/14 09:00:38;;;;;;;20.48;7.75;;;-0.60;99.90;;;;;;5027795;28;20025;-77
2022/12/14 09:03:10;;;;;;;21.25;7.40;;;-0.50;99.90;;;;;;5038268;28;20029;-77
2022/12/14 09:05:38;;;;;;;20.80;8.05;;;-0.50;99.90;;;;;;5041626;28;20072;-76
2022/12/14 09:08:04;;;;;;;17.80;8.35;;;-0.50;99.90;;;;;;5026374;28;20466;-77
2022/12/14 09:10:30;;;;;;;17.10;7.28;;;-0.50;99.90;;;;;;5040593;28;20116;-76
2022/12/14 09:12:57;;;;;;;22.88;7.55;;;-0.60;99.90;;;;;;5019826;28;20219;-77
2022/12/14 09:15:26;;;;;;;14.85;7.05;;;-0.60;99.90;;;;;;5023513;28;20022;-80
2022/12/14 09:17:51;;;;;;;18.65;8.65;;;-0.60;99.90;;;;;;5027208;28;20048;-76
2022/12/14 09:20:17;;;;;;;19.67;8.30;;;-0.60;99.90;;;;;;5022128;28;20402;-77
2022/12/14 09:22:43;;;;;;;18.50;7.35;;;-0.70;99.90;;;;;;5025405;28;20036;-77
2022/12/14 09:25:10;;;;;;;18.42;7.78;;;-0.70;99.90;;;;;;5022044;28;20081;-80
2022/12/14 09:27:35;;;;;;;19.02;7.47;;;-0.60;99.90;;;;;;5022164;28;20458;-77
2022/12/14 09:30:02;;;;;;;21.45;8.52;;;-0.60;99.90;;;;;;5026653;28;20032;-75
2022/12/14 09:32:28;;;;;;;13.70;7.28;;;-0.60;99.90;;;;;;5024522;28;20037;-78
2022/12/14 09:34:54;;;;;;;23.50;9.38;;;-0.50;99.90;;;;;;5038073;28;20026;-79
2022/12/14 09:37:21;;;;;;;18.13;8.48;;;-0.50;99.90;;;;;;5040023;28;20094;-77
2022/12/14 09:39:50;;;;;;;22.85;8.48;;;-0.50;99.90;;;;;;5023163;28;20048;-76
2022/12/14 09:42:15;;;;;;;22.10;8.98;;;-0.40;99.90;;;;;;5026137;28;20456;-78
2022/12/14 09:45:05;;;;;;;23.73;9.18;;;-0.40;99.90;;;;;;5023263;28;20021;-77
2022/12/14 09:47:54;;;;;;;15.38;7.30;;;-0.40;99.90;;;;;;5036647;28;20041;-76
2022/12/14 09:50:22;;;;;;;21.10;8.00;;;-0.30;99.90;;;;;;5022375;28;20037;-80
2022/12/14 09:53:01;;;;;;;19.88;8.40;;;-0.30;99.90;;;;;;5033877;28;20112;-79
2022/12/14 09:55:56;;;;;;;18.75;8.80;;;-0.20;99.90;;;;;;5028722;28;20065;-80
2022/12/14 09:58:26;;;;;;;22.40;8.80;;;-0.20;99.90;;;;;;5027567;28;20034;-77
2022/12/14 10:01:16;;;;;;;18.08;7.15;;;-0.10;99.90;;;;;;5045977;28;20018;-75
2022/12/14 10:04:13;;;;;;;20.08;8.75;;;-0.10;99.90;;;;;;5041894;28;20029;-79
2022/12/14 10:07:00;;;;;;;16.75;7.22;;;0.10;99.90;;;;;;5030920;28;20045;-79
2022/12/14 10:09:32;;;;;;;19.02;8.70;;;0.20;99.90;;;;;;5042957;28;20030;-77
2022/12/14 10:12:21;;;;;;;23.77;9.00;;;0.20;99.90;;;;;;5041999;28;20026;-79
2022/12/14 10:14:58;;;;;;;22.63;8.48;;;0.30;99.90;;;;;;5037251;28;20022;-79
2022/12/14 10:18:02;;;;;;;18.83;8.07;;;0.30;99.90;;;;;;5031872;28;20072;-77
2022/12/14 10:20:30;;;;;;;15.75;7.97;;;0.40;99.90;;;;;;5042770;28;20045;-76
2022/12/14 10:23:03;;;;;;;25.25;8.25;;;0.50;99.90;;;;;;5027888;28;20034;-77
2022/12/14 10:25:32;;;;;;;17.88;7.82;;;0.50;99.90;;;;;;5029270;28;20026;-78
2022/12/14 10:28:09;;;;;;;22.33;8.07;;;0.50;99.90;;;;;;5048666;28;20044;-76
2022/12/14 10:30:41;;;;;;;16.30;7.43;;;0.60;99.90;;;;;;5050945;28;20040;-78
2022/12/14 10:33:28;;;;;;;21.92;8.00;;;0.70;99.90;;;;;;5032889;28;20288;-76
2022/12/14 10:36:11;;;;;;;19.20;8.13;;;0.80;99.90;;;;;;5022108;28;20053;-78
2022/12/14 10:38:45;;;;;;;;;;;1.00;99.90;;;;;;5024099;28;20461;-76
2022/12/14 10:41:29;;;;;;;19.05;7.68;;;1.20;99.90;;;;;;5021894;28;20003;-78
2022/12/14 10:43:57;;;;;;;17.42;7.40;;;1.40;99.90;;;;;;5024082;28;20445;-79
2022/12/14 10:46:30;;;;;;;24.60;8.47;;;1.50;99.90;;;;;;5020411;28;20087;-78
2022/12/14 10:49:28;;;;;;;15.50;7.78;;;1.70;99.90;;;;;;5022784;28;20058;-80
2022/12/14 10:52:11;;;;;;;18.83;8.35;;;2.10;99.90;;;;;;5020412;28;20030;-78
2022/12/14 10:54:53;;;;;;;15.55;7.82;;;2.40;99.90;;;;;;5050823;28;20358;-78
2022/12/14 10:57:25;;;;;;;14.55;7.72;;;2.70;99.90;;;;;;5047559;28;20036;-76
2022/12/14 10:59:51;;;;;;;21.33;8.00;;;3.30;99.90;;;;;;5036327;28;20056;-79
2022/12/14 11:02:27;;;;;;;21.13;8.43;;;3.40;99.90;;;;;;5030700;28;20037;-79
2022/12/14 11:04:58;;;;;;;17.00;8.00;;;3.60;99.90;;;;;;5041187;28;20056;-77
2022/12/14 11:07:44;;;;;;;18.90;8.07;;;4.00;99.90;;;;;;5022516;28;20025;-77
2022/12/14 11:10:16;;;;;;;20.25;8.65;;;4.40;99.90;;;;;;5022072;28;20025;-76
2022/12/14 11:12:56;;;;;;;20.50;9.38;;;4.80;99.90;;;;;;5025249;28;20017;-77
2022/12/14 11:15:46;;;;;;;16.88;8.90;;;5.30;99.90;;;;;;5027241;28;20075;-77
2022/12/14 11:18:14;;;;;;;16.70;8.60;;;5.60;99.90;;;;;;5024545;28;20111;-78
2022/12/14 11:20:52;;;;;;;16.67;8.25;;;5.50;97.90;;;;;;5019937;28;20033;-78
2022/12/14 11:23:29;;;;;;;19.00;8.50;;;5.40;97.90;;;;;;5022130;28;20059;-78
2022/12/14 11:26:05;;;;;;;17.65;9.02;;;5.40;97.30;;;;;;5021483;28;20026;-76
2022/12/14 11:28:35;;;;;;;15.55;8.23;;;5.50;97.20;;;;;;5019493;28;20056;-78
2022/12/14 11:31:19;;;;;;;17.15;8.32;;;5.60;99.40;;;;;;5020088;28;20036;-77
2022/12/14 11:33:54;;;;;;;14.90;7.80;;;5.80;96.20;;;;;;5019193;28;20071;-78
2022/12/14 11:36:41;;;;;;;14.90;7.82;;;6.00;96.10;;;;;;5037468;28;20106;-78
2022/12/14 11:39:12;;;;;;;19.95;7.35;;;6.20;95.10;;;;;;5020383;28;20026;-77
2022/12/14 11:41:43;;;;;;;16.80;8.00;;;6.40;95.00;;;;;;5018653;28;20500;-77
2022/12/14 11:44:14;;;;;;;16.85;8.07;;;6.40;92.00;;;;;;5042231;28;20780;-76
2022/12/14 11:46:59;;;;;;;15.50;8.85;;;6.30;92.80;;;;;;5020583;28;20026;-75
2022/12/14 11:49:37;;;;;;;14.68;7.88;;;6.20;92.70;;;;;;5023727;28;20025;-76
2022/12/14 11:52:11;;;;;;;20.48;9.02;;;6.30;92.70;;;;;;5018463;28;20057;-77
2022/12/14 11:54:44;;;;;;;17.13;8.68;;;6.20;92.80;;;;;;5019584;28;20044;-78
2022/12/14 11:57:13;;;;;;;22.10;8.90;;;6.20;94.80;;;;;;5021680;28;20029;-76
2022/12/14 11:59:46;;;;;;;19.42;8.50;;;6.60;93.00;;;;;;5022875;28;20077;-76
2022/12/14 12:02:28;;;;;;;15.93;8.35;;;6.70;93.70;;;;;;5021897;28;20128;-77
2022/12/14 12:05:06;;;;;;;18.55;8.60;;;6.80;92.20;;;;;;5019787;28;20049;-76
2022/12/14 12:07:37;;;;;;;17.63;8.65;;;6.60;91.20;;;;;;5019865;28;20504;-75
2022/12/14 12:10:23;;;;;;;19.25;8.45;;;6.30;92.10;;;;;;5023459;28;20029;-76
2022/12/14 12:12:55;;;;;;;16.45;8.63;;;6.10;91.80;;;;;;5025570;28;20109;-79
2022/12/14 12:15:33;;;;;;;17.40;8.23;;;6.20;93.30;;;;;;5041336;28;20040;-77
2022/12/14 12:18:04;;;;;;;16.83;8.60;;;6.60;92.90;;;;;;5021291;28;20049;-77
2022/12/14 12:20:30;;;;;;;20.38;8.65;;;6.80;92.00;;;;;;5025115;28;20033;-78
2022/12/14 12:23:21;;;;;;;15.32;8.23;;;7.00;93.00;;;;;;5021475;28;20032;-77
2022/12/14 12:25:49;;;;;;;18.30;8.88;;;7.00;90.80;;;;;;5036874;28;20532;-78
2022/12/14 12:28:27;;;;;;;17.40;8.73;;;7.20;92.20;;;;;;5022371;28;20033;-76
2022/12/14 12:31:04;;;;;;;16.65;9.07;;;7.30;93.70;;;;;;5021462;28;20040;-78
2022/12/14 12:33:51;;;;;;;20.25;8.85;;;7.70;90.60;;;;;;5038525;28;20345;-73
2022/12/14 12:36:19;;;;;;;17.38;8.40;;;7.90;90.30;;;;;;5027709;28;20029;-78
2022/12/14 12:38:58;;;;;;;14.63;7.85;;;7.70;90.50;;;;;;5022235;28;20033;-79
2022/12/14 12:41:40;;;;;;;16.58;8.40;;;7.80;90.00;;;;;;5043591;28;20025;-76
2022/12/14 12:44:35;;;;;;;17.38;8.85;;;8.00;88.70;;;;;;5034494;28;20037;-78
2022/12/14 12:47:34;;;;;;;16.77;8.48;;;7.70;89.20;;;;;;5027994;28;20048;-77
2022/12/14 12:50:05;;;;;;;16.92;8.98;;;8.00;90.20;;;;;;5045246;28;20116;-74
2022/12/14 12:52:39;;;;;;;20.05;9.68;;;7.80;86.70;;;;;;5022372;28;20037;-75
2022/12/14 12:55:15;;;;;;;16.45;8.30;;;7.70;87.60;;;;;;5020976;28;20091;-79
2022/12/14 12:57:48;;;;;;;15.98;8.30;;;7.50;88.30;;;;;;5041546;28;20113;-79
2022/12/14 13:00:24;;;;;;;16.05;8.55;;;7.50;88.00;;;;;;5054807;28;20033;-80
2022/12/14 13:02:56;;;;;;;17.17;9.15;;;7.30;90.00;;;;;;5035417;28;20048;-79
2022/12/14 13:05:27;;;;;;;21.10;8.82;;;7.40;89.80;;;;;;5037974;28;20102;-78
2022/12/14 13:07:57;;;;;;;18.08;8.50;;;7.50;87.70;;;;;;5038364;28;20029;-78
2022/12/14 13:10:29;;;;;;;19.65;8.93;;;7.50;87.30;;;;;;5048225;28;20052;-76
2022/12/14 13:13:11;;;;;;;20.85;9.40;;;8.40;88.60;;;;;;5034811;28;20037;-76
2022/12/14 13:16:02;;;;;;;19.00;8.93;;;13.10;75.60;;;;;;5037218;28;20049;-77
2022/12/14 13:18:40;;;;;;;28.58;9.60;;;17.70;57.50;;;;;;5047938;28;20106;-80
2022/12/14 13:21:23;;;;;;;13.55;8.38;;;21.50;42.50;;;;;;5027935;28;20022;-77
2022/12/14 13:23:49;;;;;;;12.85;8.60;;;23.80;36.60;;;;;;5027168;28;20116;-80
2022/12/14 13:26:46;;;;;;;15.15;9.05;;;24.70;32.90;;;;;;5030833;28;20022;-77